createdAt,value
2016-12-14T00:00:08.911Z,-3.49
2016-12-14T00:01:08.856Z,-3.46
2016-12-14T00:02:08.853Z,-3.57
2016-12-14T00:03:08.843Z,-3.57
2016-12-14T00:04:08.794Z,-3.4
2016-12-14T00:05:08.781Z,-3.47
2016-12-14T00:06:08.782Z,-3.46
2016-12-14T00:07:08.765Z,-3.54
2016-12-14T00:08:08.724Z,-3.57
2016-12-14T00:09:08.712Z,-3.57
2016-12-14T00:10:08.692Z,-3.57
2016-12-14T00:11:08.674Z,-3.54
2016-12-14T00:12:08.655Z,-3.58
2016-12-14T00:13:08.614Z,-3.57
2016-12-14T00:14:08.611Z,-3.64
2016-12-14T00:15:08.610Z,-3.57
2016-12-14T00:16:08.558Z,-3.58
2016-12-14T00:17:08.552Z,-3.58
2016-12-14T00:18:08.522Z,-3.55
2016-12-14T00:19:08.512Z,-3.58
2016-12-14T00:20:08.504Z,-3.52
2016-12-14T00:21:08.471Z,-3.58
2016-12-14T00:22:08.436Z,-3.61
2016-12-14T00:23:08.431Z,-3.58
2016-12-14T00:24:08.419Z,-3.57
2016-12-14T00:25:08.390Z,-3.7
2016-12-14T00:26:08.375Z,-3.72
2016-12-14T00:27:08.356Z,-3.61
2016-12-14T00:28:08.329Z,-3.58
2016-12-14T00:29:08.325Z,-3.57
2016-12-14T00:30:08.272Z,-3.64
2016-12-14T00:31:08.260Z,-3.69
2016-12-14T00:32:08.249Z,-3.7
2016-12-14T00:33:08.215Z,-3.72
2016-12-14T00:34:08.207Z,-3.7
2016-12-14T00:35:08.189Z,-3.68
2016-12-14T00:36:08.146Z,-3.65
2016-12-14T00:37:08.143Z,-3.65
2016-12-14T00:38:08.106Z,-3.68
2016-12-14T00:39:08.090Z,-3.69
2016-12-14T00:40:08.076Z,-3.68
2016-12-14T00:41:08.058Z,-3.69
2016-12-14T00:42:08.037Z,-3.59
2016-12-14T00:43:08.025Z,-3.72
2016-12-14T00:44:08.000Z,-3.68
2016-12-14T00:45:07.997Z,-3.69
2016-12-14T00:46:07.947Z,-3.62
2016-12-14T00:47:07.955Z,-3.7
2016-12-14T00:48:07.931Z,-3.68
2016-12-14T00:49:07.915Z,-3.65
2016-12-14T00:50:07.876Z,-3.81
2016-12-14T00:51:07.861Z,-3.77
2016-12-14T00:52:07.838Z,-3.77
2016-12-14T00:53:07.818Z,-3.76
2016-12-14T00:54:07.808Z,-3.81
2016-12-14T00:55:07.756Z,-3.79
2016-12-14T00:56:07.740Z,-3.8
2016-12-14T00:57:07.749Z,-3.81
2016-12-14T00:58:07.718Z,-3.81
2016-12-14T00:59:07.674Z,-3.77
2016-12-14T01:00:07.681Z,-3.8
2016-12-14T01:01:07.661Z,-3.77
2016-12-14T01:02:07.622Z,-3.68
2016-12-14T01:03:07.923Z,-3.79
2016-12-14T01:04:07.601Z,-3.79
2016-12-14T01:05:07.593Z,-3.69
2016-12-14T01:06:07.532Z,-3.74
2016-12-14T01:07:07.544Z,-3.77
2016-12-14T01:08:07.498Z,-3.86
2016-12-14T01:09:07.488Z,-3.8
2016-12-14T01:10:07.465Z,-3.72
2016-12-14T01:11:07.433Z,-3.72
2016-12-14T01:12:07.413Z,-3.77
2016-12-14T01:13:07.428Z,-3.79
2016-12-14T01:14:07.363Z,-3.88
2016-12-14T01:15:07.371Z,-3.8
2016-12-14T01:16:07.336Z,-3.72
2016-12-14T01:17:07.316Z,-3.69
2016-12-14T01:18:07.286Z,-3.77
2016-12-14T01:19:07.263Z,-3.77
2016-12-14T01:20:07.260Z,-3.72
2016-12-14T01:21:07.240Z,-3.68
2016-12-14T01:22:07.213Z,-3.76
2016-12-14T01:23:07.192Z,-3.62
2016-12-14T01:24:07.179Z,-3.58
2016-12-14T01:25:07.175Z,-3.62
2016-12-14T01:26:07.131Z,-3.65
2016-12-14T01:27:07.108Z,-3.7
2016-12-14T01:28:07.088Z,-3.7
2016-12-14T01:29:07.087Z,-3.76
2016-12-14T01:30:07.055Z,-3.59
2016-12-14T01:31:07.032Z,-3.61
2016-12-14T01:32:07.306Z,-3.62
2016-12-14T01:33:07.034Z,-3.68
2016-12-14T01:34:06.960Z,-3.65
2016-12-14T01:35:06.943Z,-3.69
2016-12-14T01:36:06.918Z,-3.74
2016-12-14T01:37:06.910Z,-3.74
2016-12-14T01:38:06.888Z,-3.77
2016-12-14T01:39:06.869Z,-3.62
2016-12-14T01:40:06.841Z,-3.7
2016-12-14T01:41:07.140Z,-3.8
2016-12-14T01:42:06.809Z,-3.79
2016-12-14T01:43:06.777Z,-3.8
2016-12-14T01:44:06.776Z,-3.77
2016-12-14T01:45:06.748Z,-3.62
2016-12-14T01:46:06.723Z,-3.7
2016-12-14T01:47:06.697Z,-3.65
2016-12-14T01:48:06.683Z,-3.83
2016-12-14T01:49:06.665Z,-3.74
2016-12-14T01:50:06.629Z,-3.79
2016-12-14T01:51:06.602Z,-3.79
2016-12-14T01:52:06.617Z,-3.77
2016-12-14T01:53:06.565Z,-3.72
2016-12-14T01:54:06.565Z,-3.69
2016-12-14T01:55:06.544Z,-3.77
2016-12-14T01:56:06.504Z,-3.76
2016-12-14T01:57:06.498Z,-3.74
2016-12-14T01:58:06.477Z,-3.72
2016-12-14T01:59:06.472Z,-3.86
2016-12-14T02:00:06.430Z,-3.81
2016-12-14T02:01:06.412Z,-3.79
2016-12-14T02:02:06.409Z,-3.83
2016-12-14T02:03:06.361Z,-3.89
2016-12-14T02:04:06.340Z,-3.8
2016-12-14T02:05:06.328Z,-3.83
2016-12-14T02:06:06.315Z,-3.84
2016-12-14T02:07:06.273Z,-3.89
2016-12-14T02:08:06.255Z,-3.89
2016-12-14T02:09:06.248Z,-3.79
2016-12-14T02:10:06.239Z,-3.89
2016-12-14T02:11:06.193Z,-3.83
2016-12-14T02:12:06.188Z,-3.79
2016-12-14T02:13:06.157Z,-3.81
2016-12-14T02:14:06.146Z,-3.86
2016-12-14T02:15:06.125Z,-3.8
2016-12-14T02:16:06.096Z,-3.8
2016-12-14T02:17:06.073Z,-3.88
2016-12-14T02:18:06.067Z,-3.77
2016-12-14T02:19:06.096Z,-3.79
2016-12-14T02:20:06.019Z,-3.81
2016-12-14T02:21:06.006Z,-3.79
2016-12-14T02:22:05.967Z,-3.79
2016-12-14T02:23:05.944Z,-3.83
2016-12-14T02:24:05.955Z,-3.86
2016-12-14T02:25:05.927Z,-4.04
2016-12-14T02:26:05.885Z,-4.09
2016-12-14T02:27:05.875Z,-4.09
2016-12-14T02:28:05.861Z,-4.09
2016-12-14T02:29:05.838Z,-4.17
2016-12-14T02:30:05.823Z,-4.23
2016-12-14T02:31:05.803Z,-4.27
2016-12-14T02:32:05.778Z,-4.19
2016-12-14T02:33:05.755Z,-4.1
2016-12-14T02:34:06.065Z,-4.02
2016-12-14T02:35:05.708Z,-4.07
2016-12-14T02:36:05.989Z,-4.09
2016-12-14T02:37:05.672Z,-4.07
2016-12-14T02:38:05.638Z,-4.13
2016-12-14T02:39:05.644Z,-4.15
2016-12-14T02:40:05.614Z,-4.23
2016-12-14T02:41:05.600Z,-4.12
2016-12-14T02:42:05.577Z,-4.1
2016-12-14T02:43:05.575Z,-4.12
2016-12-14T02:44:05.530Z,-4.13
2016-12-14T02:45:05.502Z,-4.06
2016-12-14T02:46:05.818Z,-3.95
2016-12-14T02:47:05.481Z,-3.86
2016-12-14T02:48:05.455Z,-3.79
2016-12-14T02:49:05.458Z,-3.83
2016-12-14T02:50:05.412Z,-3.8
2016-12-14T02:51:05.389Z,-3.84
2016-12-14T02:52:05.364Z,-3.94
2016-12-14T02:53:05.358Z,-3.81
2016-12-14T02:54:05.319Z,-3.74
2016-12-14T02:55:05.306Z,-3.74
2016-12-14T02:56:05.300Z,-3.64
2016-12-14T02:57:05.296Z,-3.69
2016-12-14T02:58:05.260Z,-3.74
2016-12-14T02:59:05.225Z,-3.69
2016-12-14T03:00:05.221Z,-3.86
2016-12-14T03:01:05.180Z,-3.79
2016-12-14T03:02:05.180Z,-3.74
2016-12-14T03:03:05.157Z,-3.86
2016-12-14T03:04:05.138Z,-3.84
2016-12-14T03:05:05.129Z,-3.72
2016-12-14T03:06:05.115Z,-3.83
2016-12-14T03:07:05.077Z,-3.98
2016-12-14T03:08:05.047Z,-3.99
2016-12-14T03:09:05.037Z,-3.95
2016-12-14T03:10:05.023Z,-4.02
2016-12-14T03:11:04.973Z,-3.98
2016-12-14T03:12:04.975Z,-3.8
2016-12-14T03:13:05.001Z,-3.79
2016-12-14T03:14:04.917Z,-3.74
2016-12-14T03:15:04.901Z,-3.65
2016-12-14T03:16:04.889Z,-3.74
2016-12-14T03:17:04.875Z,-3.68
2016-12-14T03:18:04.845Z,-3.68
2016-12-14T03:19:04.821Z,-3.7
2016-12-14T03:20:04.808Z,-3.7
2016-12-14T03:21:04.782Z,-3.76
2016-12-14T03:22:04.762Z,-3.84
2016-12-14T03:23:04.737Z,-3.88
2016-12-14T03:24:05.072Z,-3.74
2016-12-14T03:25:04.813Z,-3.69
2016-12-14T03:26:04.677Z,-3.58
2016-12-14T03:27:04.675Z,-3.64
2016-12-14T03:28:04.642Z,-3.7
2016-12-14T03:29:04.616Z,-3.69
2016-12-14T03:30:04.594Z,-3.59
2016-12-14T03:31:04.591Z,-3.7
2016-12-14T03:32:04.549Z,-3.65
2016-12-14T03:33:04.552Z,-3.62
2016-12-14T03:34:04.540Z,-3.58
2016-12-14T03:35:04.501Z,-3.69
2016-12-14T03:36:04.476Z,-3.59
2016-12-14T03:37:04.455Z,-3.64
2016-12-14T03:38:04.462Z,-3.59
2016-12-14T03:39:04.433Z,-3.65
2016-12-14T03:40:04.386Z,-3.64
2016-12-14T03:41:04.367Z,-3.59
2016-12-14T03:42:04.357Z,-3.68
2016-12-14T03:43:04.345Z,-3.62
2016-12-14T03:44:04.336Z,-3.69
2016-12-14T03:45:04.295Z,-3.69
2016-12-14T03:46:04.290Z,-3.68
2016-12-14T03:47:04.270Z,-3.7
2016-12-14T03:48:04.252Z,-3.74
2016-12-14T03:49:04.227Z,-3.7
2016-12-14T03:50:04.219Z,-3.68
2016-12-14T03:51:04.174Z,-3.72
2016-12-14T03:52:04.155Z,-3.69
2016-12-14T03:53:04.448Z,-3.74
2016-12-14T03:54:04.126Z,-3.7
2016-12-14T03:55:04.093Z,-3.76
2016-12-14T03:56:04.071Z,-3.7
2016-12-14T03:57:04.068Z,-3.77
2016-12-14T03:58:04.050Z,-3.76
2016-12-14T03:59:04.037Z,-3.72
2016-12-14T04:00:03.992Z,-3.76
2016-12-14T04:01:03.961Z,-3.65
2016-12-14T04:02:03.975Z,-3.72
2016-12-14T04:03:03.931Z,-3.77
2016-12-14T04:04:03.916Z,-3.74
2016-12-14T04:05:03.904Z,-3.79
2016-12-14T04:06:03.863Z,-3.7
2016-12-14T04:07:03.877Z,-3.8
2016-12-14T04:08:03.835Z,-3.76
2016-12-14T04:09:03.815Z,-3.77
2016-12-14T04:10:03.802Z,-3.74
2016-12-14T04:11:03.788Z,-3.76
2016-12-14T04:12:03.745Z,-3.76
2016-12-14T04:13:03.725Z,-3.8
2016-12-14T04:14:03.719Z,-3.7
2016-12-14T04:15:03.688Z,-3.84
2016-12-14T04:16:03.675Z,-3.76
2016-12-14T04:17:03.651Z,-3.77
2016-12-14T04:18:03.653Z,-3.72
2016-12-14T04:19:03.626Z,-3.76
2016-12-14T04:20:03.590Z,-3.79
2016-12-14T04:21:03.592Z,-3.81
2016-12-14T04:22:03.548Z,-3.77
2016-12-14T04:23:03.530Z,-3.8
2016-12-14T04:24:03.517Z,-3.84
2016-12-14T04:25:03.505Z,-3.84
2016-12-14T04:26:03.471Z,-3.76
2016-12-14T04:27:03.438Z,-3.77
2016-12-14T04:28:03.438Z,-3.65
2016-12-14T04:29:03.413Z,-3.74
2016-12-14T04:30:03.375Z,-3.65
2016-12-14T04:31:03.370Z,-3.74
2016-12-14T04:32:03.337Z,-3.76
2016-12-14T04:33:03.330Z,-3.7
2016-12-14T04:34:03.318Z,-3.72
2016-12-14T04:35:03.312Z,-3.74
2016-12-14T04:36:03.275Z,-3.77
2016-12-14T04:37:03.271Z,-3.77
2016-12-14T04:38:03.233Z,-3.72
2016-12-14T04:39:03.227Z,-3.84
2016-12-14T04:40:03.193Z,-3.74
2016-12-14T04:41:03.184Z,-3.77
2016-12-14T04:42:03.141Z,-3.74
2016-12-14T04:43:03.132Z,-3.83
2016-12-14T04:44:03.098Z,-3.84
2016-12-14T04:45:03.078Z,-3.84
2016-12-14T04:46:03.059Z,-3.84
2016-12-14T04:47:03.065Z,-3.81
2016-12-14T04:48:03.345Z,-3.84
2016-12-14T04:49:03.031Z,-3.8
2016-12-14T04:50:02.991Z,-3.8
2016-12-14T04:51:02.976Z,-3.79
2016-12-14T04:52:02.955Z,-3.77
2016-12-14T04:53:02.940Z,-3.81
2016-12-14T04:54:02.930Z,-3.74
2016-12-14T04:55:02.894Z,-3.81
2016-12-14T04:56:02.877Z,-3.83
2016-12-14T04:57:02.872Z,-3.76
2016-12-14T04:58:02.831Z,-3.76
2016-12-14T04:59:02.822Z,-3.8
2016-12-14T05:00:02.816Z,-3.89
2016-12-14T05:01:02.765Z,-3.88
2016-12-14T05:02:02.753Z,-3.94
2016-12-14T05:03:02.730Z,-3.98
2016-12-14T05:04:02.719Z,-3.91
2016-12-14T05:05:02.712Z,-3.92
2016-12-14T05:06:02.690Z,-3.99
2016-12-14T05:07:02.656Z,-3.84
2016-12-14T05:08:02.639Z,-3.92
2016-12-14T05:09:02.617Z,-3.83
2016-12-14T05:10:02.918Z,-3.83
2016-12-14T05:11:02.570Z,-3.89
2016-12-14T05:12:02.552Z,-3.92
2016-12-14T05:13:02.535Z,-3.97
2016-12-14T05:14:02.504Z,-3.97
2016-12-14T05:15:02.495Z,-3.95
2016-12-14T05:16:02.480Z,-3.84
2016-12-14T05:17:02.469Z,-3.84
2016-12-14T05:18:02.426Z,-3.81
2016-12-14T05:19:02.422Z,-3.92
2016-12-14T05:20:02.407Z,-3.95
2016-12-14T05:21:02.373Z,-3.88
2016-12-14T05:22:02.347Z,-3.91
2016-12-14T05:23:02.325Z,-3.94
2016-12-14T05:24:02.313Z,-3.94
2016-12-14T05:25:02.278Z,-3.98
2016-12-14T05:26:02.251Z,-3.94
2016-12-14T05:27:02.230Z,-3.98
2016-12-14T05:28:02.222Z,-3.86
2016-12-14T05:29:02.199Z,-3.95
2016-12-14T05:30:02.180Z,-3.94
2016-12-14T05:31:02.158Z,-3.95
2016-12-14T05:32:02.158Z,-3.97
2016-12-14T05:33:02.128Z,-3.95
2016-12-14T05:34:02.133Z,-3.91
2016-12-14T05:35:02.093Z,-3.83
2016-12-14T05:36:02.081Z,-3.91
2016-12-14T05:37:02.038Z,-3.98
2016-12-14T05:38:02.002Z,-3.94
2016-12-14T05:39:01.996Z,-3.94
2016-12-14T05:40:01.974Z,-3.94
2016-12-14T05:41:01.956Z,-3.84
2016-12-14T05:42:01.937Z,-3.89
2016-12-14T05:43:01.917Z,-4.01
2016-12-14T05:44:01.891Z,-3.98
2016-12-14T05:45:01.868Z,-3.8
2016-12-14T05:46:01.875Z,-3.83
2016-12-14T05:47:01.859Z,-3.77
2016-12-14T05:48:01.822Z,-3.8
2016-12-14T05:49:01.799Z,-3.81
2016-12-14T05:50:01.767Z,-3.95
2016-12-14T05:51:01.787Z,-3.91
2016-12-14T05:52:01.739Z,-3.92
2016-12-14T05:53:01.718Z,-3.99
2016-12-14T05:54:01.710Z,-3.94
2016-12-14T05:55:01.671Z,-3.95
2016-12-14T05:56:01.656Z,-3.94
2016-12-14T05:57:01.633Z,-3.83
2016-12-14T05:58:01.619Z,-3.8
2016-12-14T05:59:01.602Z,-3.97
2016-12-14T06:00:01.572Z,-3.97
2016-12-14T06:01:01.559Z,-3.98
2016-12-14T06:02:01.522Z,-3.94
2016-12-14T06:03:01.497Z,-3.88
2016-12-14T06:04:01.492Z,-3.84
2016-12-14T06:05:01.464Z,-3.89
2016-12-14T06:06:01.472Z,-3.8
2016-12-14T06:07:01.430Z,-3.84
2016-12-14T06:08:01.395Z,-3.76
2016-12-14T06:09:01.393Z,-3.7
2016-12-14T06:10:01.363Z,-3.69
2016-12-14T06:11:01.367Z,-3.79
2016-12-14T06:12:01.340Z,-3.7
2016-12-14T06:13:01.334Z,-3.59
2016-12-14T06:14:01.309Z,-3.65
2016-12-14T06:15:01.278Z,-3.62
2016-12-14T06:16:01.260Z,-3.69
2016-12-14T06:17:01.255Z,-3.68
2016-12-14T06:18:01.225Z,-3.7
2016-12-14T06:19:01.205Z,-3.7
2016-12-14T06:20:01.190Z,-3.8
2016-12-14T06:21:01.159Z,-3.83
2016-12-14T06:22:01.142Z,-3.89
2016-12-14T06:23:01.121Z,-4.01
2016-12-14T06:24:01.093Z,-3.88
2016-12-14T06:25:01.078Z,-3.89
2016-12-14T06:26:01.369Z,-3.89
2016-12-14T06:27:01.054Z,-3.92
2016-12-14T06:28:01.019Z,-3.8
2016-12-14T06:29:01.023Z,-3.95
2016-12-14T06:30:00.997Z,-3.8
2016-12-14T06:31:00.964Z,-3.74
2016-12-14T06:32:00.929Z,-3.74
2016-12-14T06:33:00.913Z,-3.76
2016-12-14T06:34:00.915Z,-3.72
2016-12-14T06:35:00.874Z,-3.74
2016-12-14T06:36:00.874Z,-3.79
2016-12-14T06:37:00.855Z,-3.79
2016-12-14T06:38:00.819Z,-3.77
2016-12-14T06:39:00.812Z,-3.8
2016-12-14T06:40:00.770Z,-3.84
2016-12-14T06:41:00.766Z,-3.79
2016-12-14T06:42:00.749Z,-3.8
2016-12-14T06:43:00.738Z,-3.77
2016-12-14T06:44:00.698Z,-3.74
2016-12-14T06:45:00.674Z,-3.69
2016-12-14T06:46:00.654Z,-3.7
2016-12-14T06:47:00.665Z,-3.68
2016-12-14T06:48:00.644Z,-3.7
2016-12-14T06:49:00.600Z,-3.72
2016-12-14T06:50:00.589Z,-3.79
2016-12-14T06:51:00.576Z,-3.68
2016-12-14T06:52:00.540Z,-3.65
2016-12-14T06:53:00.528Z,-3.7
2016-12-14T06:54:00.511Z,-3.69
2016-12-14T06:55:00.475Z,-3.69
2016-12-14T06:56:00.460Z,-3.76
2016-12-14T06:57:00.788Z,-3.62
2016-12-14T06:58:00.452Z,-3.74
2016-12-14T06:59:00.418Z,-3.79
2016-12-14T07:00:00.399Z,-3.7
2016-12-14T07:01:00.386Z,-3.65
2016-12-14T07:02:00.362Z,-3.65
2016-12-14T07:03:00.340Z,-3.59
2016-12-14T07:04:00.340Z,-3.55
2016-12-14T07:05:00.288Z,-3.65
2016-12-14T07:06:00.284Z,-3.74
2016-12-14T07:07:00.243Z,-3.79
2016-12-14T07:08:00.246Z,-3.72
2016-12-14T07:09:00.218Z,-3.72
2016-12-14T07:10:00.204Z,-3.58
2016-12-14T07:11:00.178Z,-3.58
2016-12-14T07:12:00.165Z,-3.55
2016-12-14T07:13:00.152Z,-3.61
2016-12-14T07:14:00.125Z,-3.72
2016-12-14T07:15:00.102Z,-3.59
2016-12-14T07:16:00.071Z,-3.58
2016-12-14T07:17:00.067Z,-3.54
2016-12-14T07:18:00.060Z,-3.52
2016-12-14T07:19:00.036Z,-3.49
2016-12-14T07:20:00.001Z,-3.44
2016-12-14T07:20:59.997Z,-3.41
2016-12-14T07:22:00.000Z,-3.36
2016-12-14T07:22:59.947Z,-3.34
2016-12-14T07:23:59.934Z,-3.41
2016-12-14T07:24:59.887Z,-3.36
2016-12-14T07:25:59.897Z,-3.43
2016-12-14T07:26:59.866Z,-3.44
2016-12-14T07:27:59.827Z,-3.34
2016-12-14T07:28:59.819Z,-3.34
2016-12-14T07:29:59.801Z,-3.25
2016-12-14T07:30:59.781Z,-3.23
2016-12-14T07:31:59.755Z,-3.28
2016-12-14T07:32:59.757Z,-3.23
2016-12-14T07:33:59.712Z,-3.36
2016-12-14T07:34:59.700Z,-3.36
2016-12-14T07:35:59.709Z,-3.28
2016-12-14T07:36:59.660Z,-3.28
2016-12-14T07:37:59.661Z,-3.31
2016-12-14T07:38:59.635Z,-3.31
2016-12-14T07:39:59.618Z,-3.22
2016-12-14T07:40:59.575Z,-3.16
2016-12-14T07:41:59.754Z,-3.25
2016-12-14T07:42:59.741Z,-3.23
2016-12-14T07:43:59.507Z,-3.33
2016-12-14T07:44:59.524Z,-3.28
2016-12-14T07:45:59.800Z,-3.31
2016-12-14T07:46:59.450Z,-3.28
2016-12-14T07:47:59.454Z,-3.21
2016-12-14T07:48:59.422Z,-3.22
2016-12-14T07:49:59.411Z,-3.22
2016-12-14T07:50:59.400Z,-3.15
2016-12-14T07:51:59.377Z,-3.19
2016-12-14T07:52:59.337Z,-3.12
2016-12-14T07:53:59.344Z,-3.15
2016-12-14T07:54:59.307Z,-3.22
2016-12-14T07:55:59.302Z,-3.12
2016-12-14T07:56:59.258Z,-3.04
2016-12-14T07:57:59.264Z,-3.04
2016-12-14T07:58:59.236Z,-3.08
2016-12-14T07:59:59.213Z,-3.07
2016-12-14T08:00:59.184Z,-3.16
2016-12-14T08:01:59.168Z,-3.15
2016-12-14T08:02:59.149Z,-3.1
2016-12-14T08:03:59.147Z,-2.97
2016-12-14T08:04:59.129Z,-3.15
2016-12-14T08:05:59.070Z,-3.13
2016-12-14T08:06:59.074Z,-3.07
2016-12-14T08:07:59.257Z,-3.13
2016-12-14T08:08:59.018Z,-2.95
2016-12-14T08:09:59.195Z,-2.9
2016-12-14T08:10:59.001Z,-2.76
2016-12-14T08:11:59.196Z,-2.77
2016-12-14T08:12:58.948Z,-2.89
2016-12-14T08:13:58.949Z,-3
2016-12-14T08:14:58.908Z,-2.9
2016-12-14T08:15:58.885Z,-2.79
2016-12-14T08:16:58.867Z,-2.84
2016-12-14T08:17:58.854Z,-2.93
2016-12-14T08:18:58.833Z,-2.89
2016-12-14T08:19:58.814Z,-2.94
2016-12-14T08:20:58.847Z,-2.84
2016-12-14T08:21:58.777Z,-2.79
2016-12-14T08:22:58.755Z,-2.8
2016-12-14T08:23:58.729Z,-2.71
2016-12-14T08:24:58.705Z,-2.72
2016-12-14T08:25:58.712Z,-2.69
2016-12-14T08:26:58.680Z,-2.69
2016-12-14T08:27:58.659Z,-2.61
2016-12-14T08:28:58.647Z,-2.59
2016-12-14T08:29:58.611Z,-2.46
2016-12-14T08:30:58.594Z,-2.66
2016-12-14T08:31:58.582Z,-2.53
2016-12-14T08:32:58.561Z,-2.48
2016-12-14T08:33:58.544Z,-2.55
2016-12-14T08:34:58.529Z,-2.33
2016-12-14T08:35:58.481Z,-2.64
2016-12-14T08:36:58.468Z,-2.68
2016-12-14T08:37:58.669Z,-2.32
2016-12-14T08:38:58.668Z,-2.26
2016-12-14T08:39:58.432Z,-2.35
2016-12-14T08:40:58.400Z,-2.37
2016-12-14T08:41:58.373Z,-2.46
2016-12-14T08:42:58.387Z,-2.5
2016-12-14T08:43:58.348Z,-2.5
2016-12-14T08:44:58.332Z,-2.44
2016-12-14T08:45:58.302Z,-2.48
2016-12-14T08:46:58.286Z,-2.62
2016-12-14T08:47:58.268Z,-2.58
2016-12-14T08:48:58.243Z,-2.56
2016-12-14T08:49:58.229Z,-2.53
2016-12-14T08:50:58.192Z,-2.53
2016-12-14T08:51:58.173Z,-2.32
2016-12-14T08:52:58.178Z,-2.41
2016-12-14T08:53:58.152Z,-2.38
2016-12-14T08:54:58.135Z,-2.38
2016-12-14T08:55:58.104Z,-2.46
2016-12-14T08:56:58.099Z,-2.48
2016-12-14T08:57:58.093Z,-2.53
2016-12-14T08:58:58.057Z,-2.48
2016-12-14T08:59:58.026Z,-2.33
2016-12-14T09:00:58.003Z,-2.19
2016-12-14T09:01:58.185Z,-2.21
2016-12-14T09:02:57.981Z,-2.25
2016-12-14T09:03:57.968Z,-2.37
2016-12-14T09:04:57.923Z,-2.33
2016-12-14T09:05:57.942Z,-2.32
2016-12-14T09:06:58.101Z,-2.22
2016-12-14T09:07:57.869Z,-2.28
2016-12-14T09:08:57.868Z,-2.33
2016-12-14T09:09:57.873Z,-2.33
2016-12-14T09:10:57.841Z,-2.26
2016-12-14T09:11:57.814Z,-2.35
2016-12-14T09:12:57.779Z,-2.29
2016-12-14T09:13:57.774Z,-2.24
2016-12-14T09:14:57.761Z,-2.32
2016-12-14T09:15:57.747Z,-2.33
2016-12-14T09:16:57.718Z,-2.28
2016-12-14T09:17:57.723Z,-2.33
2016-12-14T09:18:57.688Z,-2.32
2016-12-14T09:19:57.670Z,-2.26
2016-12-14T09:20:57.633Z,-2.32
2016-12-14T09:21:57.632Z,-2.38
2016-12-14T09:22:57.596Z,-2.4
2016-12-14T09:23:57.578Z,-2.28
2016-12-14T09:24:57.561Z,-2.43
2016-12-14T09:25:57.630Z,-2.19
2016-12-14T09:26:57.506Z,-2.18
2016-12-14T09:27:57.502Z,-2.07
2016-12-14T09:28:57.525Z,-1.85
2016-12-14T09:29:57.495Z,-2.08
2016-12-14T09:30:57.430Z,-2.19
2016-12-14T09:31:57.436Z,-2.11
2016-12-14T09:32:57.407Z,-2.03
2016-12-14T09:33:57.391Z,-2.11
2016-12-14T09:34:57.360Z,-2.01
2016-12-14T09:35:57.357Z,-2.04
2016-12-14T09:36:57.319Z,-1.86
2016-12-14T09:37:57.317Z,-1.57
2016-12-14T09:38:57.307Z,-1.88
2016-12-14T09:39:57.260Z,-1.92
2016-12-14T09:40:57.263Z,-1.88
2016-12-14T09:41:57.239Z,-1.9
2016-12-14T09:42:57.203Z,-1.93
2016-12-14T09:43:57.211Z,-2.24
2016-12-14T09:44:57.181Z,-2.35
2016-12-14T09:45:57.160Z,-2.46
2016-12-14T09:46:57.151Z,-2.53
2016-12-14T09:47:57.124Z,-2.61
2016-12-14T09:48:57.116Z,-2.58
2016-12-14T09:49:57.105Z,-2.35
2016-12-14T09:50:57.052Z,-2.28
2016-12-14T09:51:57.061Z,-2.29
2016-12-14T09:52:57.043Z,-2.33
2016-12-14T09:53:57.030Z,-2.19
2016-12-14T09:54:56.991Z,-2.19
2016-12-14T09:55:56.983Z,-2.21
2016-12-14T09:56:56.960Z,-1.9
2016-12-14T09:57:56.935Z,-1.9
2016-12-14T09:58:56.937Z,-2.04
2016-12-14T09:59:56.881Z,-1.88
2016-12-14T10:00:56.876Z,-1.78
2016-12-14T10:01:56.863Z,-1.64
2016-12-14T10:02:57.037Z,-1.31
2016-12-14T10:03:56.817Z,-1.31
2016-12-14T10:04:56.810Z,-1.17
2016-12-14T10:05:56.775Z,-0.96
2016-12-14T10:06:56.771Z,-0.76
2016-12-14T10:07:56.743Z,-0.97
2016-12-14T10:08:56.723Z,-1.23
2016-12-14T10:09:56.700Z,-1.71
2016-12-14T10:10:56.696Z,-1.88
2016-12-14T10:11:56.683Z,-2.06
2016-12-14T10:12:56.653Z,-2.03
2016-12-14T10:13:56.649Z,-1.65
2016-12-14T10:14:56.626Z,-1.43
2016-12-14T10:15:56.606Z,-1.39
2016-12-14T10:16:56.596Z,-1.54
2016-12-14T10:17:56.558Z,-1.44
2016-12-14T10:18:56.558Z,-1.7
2016-12-14T10:19:56.533Z,-1.46
2016-12-14T10:20:56.528Z,-1.89
2016-12-14T10:21:56.516Z,-2.03
2016-12-14T10:22:56.499Z,-2.25
2016-12-14T10:23:56.466Z,-2.22
2016-12-14T10:24:56.444Z,-1.98
2016-12-14T10:25:56.434Z,-1.96
2016-12-14T10:26:56.419Z,-1.78
2016-12-14T10:27:56.396Z,-1.57
2016-12-14T10:28:56.362Z,-1.2
2016-12-14T10:29:56.355Z,-0.81
2016-12-14T10:30:56.336Z,-1.14
2016-12-14T10:31:56.318Z,-0.9
2016-12-14T10:32:56.292Z,-0.63
2016-12-14T10:33:56.279Z,-0.86
2016-12-14T10:34:56.251Z,-0.96
2016-12-14T10:35:56.230Z,-1.41
2016-12-14T10:36:56.233Z,-1.67
2016-12-14T10:37:56.187Z,-1.9
2016-12-14T10:38:56.184Z,-1.86
2016-12-14T10:39:56.167Z,-1.68
2016-12-14T10:40:56.144Z,-1.43
2016-12-14T10:41:56.125Z,-1.23
2016-12-14T10:42:56.114Z,-1.33
2016-12-14T10:43:56.100Z,-1.15
2016-12-14T10:44:56.080Z,-1.03
2016-12-14T10:45:56.088Z,-1.29
2016-12-14T10:46:56.030Z,-1.25
2016-12-14T10:47:56.024Z,-1.36
2016-12-14T10:48:55.998Z,-1.56
2016-12-14T10:49:55.997Z,-1.89
2016-12-14T10:50:55.947Z,-2.1
2016-12-14T10:51:55.955Z,-2.01
2016-12-14T10:52:55.949Z,-1.92
2016-12-14T10:53:55.905Z,-2.03
2016-12-14T10:54:55.890Z,-1.82
2016-12-14T10:55:55.884Z,-1.68
2016-12-14T10:56:55.847Z,-1.33
2016-12-14T10:57:56.129Z,-1
2016-12-14T10:58:55.808Z,-0.85
2016-12-14T10:59:55.785Z,-0.78
2016-12-14T11:00:55.806Z,-1.31
2016-12-14T11:01:55.759Z,-1.75
2016-12-14T11:02:55.756Z,-1.38
2016-12-14T11:03:55.727Z,-1.51
2016-12-14T11:04:55.707Z,-1.25
2016-12-14T11:05:55.697Z,-0.99
2016-12-14T11:06:55.682Z,-0.9
2016-12-14T11:07:55.652Z,-1.23
2016-12-14T11:08:55.637Z,-1.26
2016-12-14T11:09:55.608Z,-1.39
2016-12-14T11:10:55.609Z,-1.61
2016-12-14T11:11:55.589Z,-1.62
2016-12-14T11:12:55.580Z,-1.62
2016-12-14T11:13:55.549Z,-1.53
2016-12-14T11:14:55.556Z,-1.35
2016-12-14T11:15:55.513Z,-1.49
2016-12-14T11:16:55.518Z,-1.26
2016-12-14T11:17:55.495Z,-1.07
2016-12-14T11:18:55.456Z,-1.11
2016-12-14T11:19:55.439Z,-1.08
2016-12-14T11:20:55.443Z,-1.33
2016-12-14T11:21:55.422Z,-1.29
2016-12-14T11:22:55.392Z,-1.32
2016-12-14T11:23:55.386Z,-1.25
2016-12-14T11:24:55.359Z,-1.17
2016-12-14T11:25:55.328Z,-1.08
2016-12-14T11:26:55.318Z,-0.86
2016-12-14T11:27:55.311Z,-0.68
2016-12-14T11:28:55.282Z,-0.53
2016-12-14T11:29:55.267Z,-0.44
2016-12-14T11:30:55.260Z,-0.53
2016-12-14T11:31:55.230Z,-0.8
2016-12-14T11:32:55.213Z,-0.89
2016-12-14T11:33:55.219Z,-0.73
2016-12-14T11:34:55.186Z,-0.76
2016-12-14T11:35:55.181Z,-0.37
2016-12-14T11:36:55.139Z,-0.35
2016-12-14T11:37:55.128Z,0.26
2016-12-14T11:38:55.103Z,-0.26
2016-12-14T11:39:55.094Z,-0.39
2016-12-14T11:40:55.096Z,-0.95
2016-12-14T11:41:55.051Z,-0.63
2016-12-14T11:42:55.049Z,-0.31
2016-12-14T11:43:55.026Z,-0.12
2016-12-14T11:44:55.018Z,0.33
2016-12-14T11:45:55.100Z,-0.13
2016-12-14T11:46:54.959Z,0.04
2016-12-14T11:47:54.955Z,-0.17
2016-12-14T11:48:54.945Z,-0.44
2016-12-14T11:49:54.922Z,-0.31
2016-12-14T11:50:54.911Z,-0.3
2016-12-14T11:51:54.911Z,0.22
2016-12-14T11:52:54.871Z,0.81
2016-12-14T11:53:54.862Z,1.17
2016-12-14T11:54:54.860Z,1.28
2016-12-14T11:55:54.884Z,1.39
2016-12-14T11:56:54.812Z,1.65
2016-12-14T11:57:54.782Z,1.89
2016-12-14T11:58:54.760Z,2.07
2016-12-14T11:59:54.780Z,2.45
2016-12-14T12:00:54.748Z,2.92
2016-12-14T12:01:54.713Z,3.07
2016-12-14T12:02:54.699Z,2.71
2016-12-14T12:03:54.686Z,2.65
2016-12-14T12:04:54.668Z,2.2
2016-12-14T12:05:54.651Z,2.45
2016-12-14T12:06:54.636Z,2.14
2016-12-14T12:07:54.619Z,2.76
2016-12-14T12:08:54.606Z,2.65
2016-12-14T12:09:54.593Z,2.68
2016-12-14T12:10:54.591Z,2.73
2016-12-14T12:11:54.863Z,3.08
2016-12-14T12:12:54.857Z,3.68
2016-12-14T12:13:54.535Z,3.93
2016-12-14T12:14:54.518Z,4.28
2016-12-14T12:15:54.517Z,4.1
2016-12-14T12:16:54.490Z,3.82
2016-12-14T12:17:54.475Z,3.81
2016-12-14T12:18:54.462Z,3.44
2016-12-14T12:19:54.447Z,3.59
2016-12-14T12:20:54.434Z,3.8
2016-12-14T12:21:54.421Z,3.23
2016-12-14T12:22:54.412Z,3.37
2016-12-14T12:23:54.401Z,3.82
2016-12-14T12:24:54.375Z,3.96
2016-12-14T12:25:54.364Z,4.04
2016-12-14T12:26:54.349Z,4.21
2016-12-14T12:27:54.337Z,4.31
2016-12-14T12:28:54.324Z,4.02
2016-12-14T12:29:54.309Z,3.96
2016-12-14T12:30:54.298Z,3.92
2016-12-14T12:31:54.283Z,4.28
2016-12-14T12:32:54.269Z,4.16
2016-12-14T12:33:54.255Z,4.25
2016-12-14T12:34:54.246Z,4.49
2016-12-14T12:35:54.228Z,3.98
2016-12-14T12:36:54.213Z,3.57
2016-12-14T12:37:54.202Z,3.56
2016-12-14T12:38:54.185Z,3.3
2016-12-14T12:39:54.174Z,3.42
2016-12-14T12:40:54.159Z,3.8
2016-12-14T12:41:54.151Z,4.14
2016-12-14T12:42:54.133Z,3.63
2016-12-14T12:43:54.119Z,3.26
2016-12-14T12:44:54.106Z,2.87
2016-12-14T12:45:54.092Z,2.79
2016-12-14T12:46:54.082Z,3.33
2016-12-14T12:47:54.067Z,3.57
2016-12-14T12:48:54.053Z,3.96
2016-12-14T12:49:54.043Z,3.81
2016-12-14T12:50:54.026Z,3.96
2016-12-14T12:51:54.013Z,3.81
2016-12-14T12:52:54.001Z,3.46
2016-12-14T12:53:53.988Z,3.15
2016-12-14T12:54:54.006Z,2.9
2016-12-14T12:55:53.961Z,3.01
2016-12-14T12:56:53.948Z,2.41